Pagina principale
METAR-TAF:

METAR-TAF

Aeroporti :

Pécs, Ungheria

latitudine: 46-06N, longitudine: 018-14E, altezza: 201 m

Osservazione

Il bollettino è stato emesso 27 minuti fa, alle 07:45 UTC
Vento 6 kt da est/nord-est
Temperature 20°C
Umidità 46%
Pressione 1020 hPa
Visibilità 10 km o più
nessuna nube inferiore a 1500 m e nessun cumulonembo

METAR: LHPP 270745Z 06006KT CAVOK 20/08 Q1020

Ora: 10:12 (08:12 UTC)

Previsione

Il bollettino è stato emesso 2 ore e 57 minuti fa, alle 05:15 UTC
Previsione valida dal 27 alle 06 UTC al 27 alle 15 UTC
Vento 7 kt da est/nord-est
Visibilità 10 km o più
nessuna nube inferiore a 1500 m e nessun cumulonembo
Evoluzione graduale
dal 27 alle 07 UTC al 27 alle 09 UTC
Nubi sparse ad un'altezza di 3000 ft

TAF: LHPP 270515Z 2706/2715 07007KT CAVOK BECMG 2707/2709 SCT030

Osservazioni e previsioni meteorologiche di più di 4000 aeroporti (messaggi METAR e TAF).

Le stazioni disponibili sono rappresentate dai dischi gialli e rossi sulla carta.

Puntare il mouse per vedere il nome della stazione.

Clicca sopra per visualizzare le osservazioni e previsioni meteorologiche.

Per cambiare la mappa : fare clic sui pulsanti verdi con una croce nera per ingrandire, il pulsante verde con un trattino per diminuire, o sulla freccia verde per le mappe adiacenti.


METAR-TAF: